Time,TemperatureF,DewpointF,PressureIn,WindDirection,WindDirectionDegrees,WindSpeedMPH,WindSpeedGustMPH,Humidity,HourlyPrecipIn,Conditions,Clouds,dailyrainin,SolarRadiationWatts/m^2,SoftwareType,DateUTC
2013-12-30 06:36:00,7.5,-21.7,30.15,ESE,112,0.0,0.0,24,0.00,,---,0.00,0.00,VWS V14.01,2013-12-30 12:36:00,
2013-12-30 06:37:00,7.5,-21.7,30.15,ESE,112,0.0,0.0,24,0.00,,---,0.00,0.00,VWS V14.01,2013-12-30 12:37:00,
2013-12-30 06:39:00,7.5,-21.7,30.15,SE,135,4.0,4.0,24,0.00,,---,0.00,0.00,VWS V14.01,2013-12-30 12:39:00,
2013-12-30 06:42:00,7.5,-21.7,30.15,ESE,112,2.9,4.0,24,0.00,,---,0.00,0.00,VWS V14.01,2013-12-30 12:42:00,
2013-12-30 06:44:00,7.5,-21.7,30.15,SE,135,0.0,2.9,24,0.00,,---,0.00,0.00,VWS V14.01,2013-12-30 12:44:00,
2013-12-30 06:49:00,7.5,-21.7,30.15,ESE,112,0.0,0.0,24,0.00,,---,0.00,0.00,VWS V14.01,2013-12-30 12:49:00,
2013-12-30 06:54:00,7.7,-21.6,30.15,ESE,112,4.7,5.8,24,0.00,,---,0.00,0.00,VWS V14.01,2013-12-30 12:54:00,
2013-12-30 06:59:00,7.7,-21.6,30.15,ESE,112,5.4,5.4,24,0.00,,---,0.00,0.00,VWS V14.01,2013-12-30 12:59:00,
2013-12-30 07:04:00,7.9,-21.4,30.15,ESE,112,4.0,4.0,24,0.00,,---,0.00,0.00,VWS V14.01,2013-12-30 13:04:00,
2013-12-30 07:09:00,7.9,-21.4,30.15,ESE,112,7.6,7.6,24,0.00,,---,0.00,0.00,VWS V14.01,2013-12-30 13:09:00,
2013-12-30 07:14:00,7.9,-21.4,30.15,SE,135,3.6,5.4,24,0.00,,---,99.99,0.00,VWS V14.01,2013-12-30 13:14:00,
2013-12-30 07:19:00,8.1,-21.2,30.15,SE,135,7.4,7.4,24,0.00,,---,99.99,0.00,VWS V14.01,2013-12-30 13:19:00,
2013-12-30 07:24:00,8.1,-21.2,30.15,SE,135,6.5,6.5,24,0.00,,---,99.99,0.00,VWS V14.01,2013-12-30 13:24:00,
2013-12-30 07:29:00,8.1,-21.2,30.15,SE,135,7.4,7.4,24,0.00,,---,99.99,0.00,VWS V14.01,2013-12-30 13:29:00,
2013-12-30 07:34:00,8.1,-21.2,30.15,SSE,158,6.3,6.3,24,0.00,,---,99.99,0.00,VWS V14.01,2013-12-30 13:34:00,
2013-12-30 07:39:00,8.2,-21.1,30.12,SE,135,5.6,5.6,24,0.00,,---,99.99,0.00,VWS V14.01,2013-12-30 13:39:00,
2013-12-30 07:44:00,8.2,-21.1,30.12,SSE,158,5.8,7.2,24,0.00,,---,99.99,0.00,VWS V14.01,2013-12-30 13:44:00,
2013-12-30 07:49:00,8.2,-21.1,30.12,SSE,158,6.0,6.0,24,0.00,,---,99.99,0.00,VWS V14.01,2013-12-30 13:49:00,
2013-12-30 07:55:00,8.6,-20.8,30.12,SE,135,7.6,7.6,24,0.00,,---,99.99,0.00,VWS V14.01,2013-12-30 13:55:00,
2013-12-30 08:00:00,8.6,-20.8,30.12,ESE,112,7.8,10.7,24,0.00,,---,99.99,0.00,VWS V14.01,2013-12-30 14:00:00,
2013-12-30 08:05:00,8.6,-20.8,30.12,SSE,158,5.4,10.5,24,0.00,,---,99.99,0.00,VWS V14.01,2013-12-30 14:05:00,
2013-12-30 08:10:00,8.6,-20.8,30.12,SSE,158,6.3,6.3,24,0.00,,---,99.99,0.00,VWS V14.01,2013-12-30 14:10:00,
2013-12-30 08:15:00,8.8,-20.6,30.12,SSE,158,6.3,6.3,24,0.00,,---,99.99,0.00,VWS V14.01,2013-12-30 14:15:00,
2013-12-30 08:20:00,9.0,-20.5,30.12,SE,135,10.5,10.5,24,0.00,,---,99.99,0.00,VWS V14.01,2013-12-30 14:20:00,
2013-12-30 08:25:00,9.0,-20.5,30.12,SSW,202,5.4,5.4,24,0.00,,---,99.99,0.00,VWS V14.01,2013-12-30 14:25:00,
2013-12-30 08:30:00,9.1,-20.3,30.12,South,180,8.7,8.7,24,0.00,,---,99.99,0.00,VWS V14.01,2013-12-30 14:30:00,
2013-12-30 08:35:00,9.1,-20.3,30.12,South,180,8.1,9.8,24,0.00,,---,99.99,0.00,VWS V14.01,2013-12-30 14:35:00,
2013-12-30 08:40:00,9.3,-20.2,30.12,SSW,202,5.4,5.4,24,0.00,,---,99.99,0.00,VWS V14.01,2013-12-30 14:40:00,
2013-12-30 08:45:00,9.3,-20.2,30.12,SSE,158,3.6,6.3,24,0.00,,---,99.99,0.00,VWS V14.01,2013-12-30 14:45:00,
2013-12-30 08:50:00,9.7,-19.9,30.12,South,180,4.3,7.2,24,0.00,,---,99.99,0.00,VWS V14.01,2013-12-30 14:50:00,
2013-12-30 08:55:00,9.9,-19.7,30.15,SSE,158,6.3,6.3,24,0.00,,---,99.99,0.00,VWS V14.01,2013-12-30 14:55:00,
2013-12-30 09:00:00,10.0,-19.5,30.15,SSE,158,5.4,5.6,24,0.00,,---,99.99,0.00,VWS V14.01,2013-12-30 15:00:00,
2013-12-30 09:05:00,10.0,-19.5,30.15,SSE,158,7.2,8.1,24,0.00,,---,99.99,0.00,VWS V14.01,2013-12-30 15:05:00,
2013-12-30 09:10:00,10.0,-19.5,30.15,ESE,112,6.0,6.0,24,0.00,,---,99.99,0.00,VWS V14.01,2013-12-30 15:10:00,
2013-12-30 09:15:00,10.2,-19.4,30.15,SSE,158,7.8,7.8,24,0.00,,---,99.99,0.00,VWS V14.01,2013-12-30 15:15:00,
2013-12-30 09:20:00,10.2,-19.4,30.15,SSE,158,9.6,9.6,24,0.00,,---,99.99,0.00,VWS V14.01,2013-12-30 15:20:00,
2013-12-30 09:25:00,10.8,-18.9,30.12,South,180,6.0,6.5,24,0.00,,---,99.99,0.00,VWS V14.01,2013-12-30 15:25:00,
2013-12-30 09:30:00,10.8,-18.9,30.12,South,180,6.0,6.0,24,0.00,,---,99.99,0.00,VWS V14.01,2013-12-30 15:30:00,
2013-12-30 09:35:00,10.8,-18.9,30.12,SSE,158,5.4,6.0,24,0.00,,---,99.99,0.00,VWS V14.01,2013-12-30 15:35:00,
2013-12-30 09:40:00,10.8,-18.9,30.12,SSE,158,3.8,5.4,24,0.00,,---,99.99,0.00,VWS V14.01,2013-12-30 15:40:00,
2013-12-30 10:00:00,14.2,-12.2,30.12,South,180,10.5,10.5,29,0.00,,---,99.99,0.00,VWS V14.01,2013-12-30 16:00:00,
2013-12-30 10:05:00,14.2,-14.4,30.09,SE,135,9.8,9.8,26,0.00,,---,99.99,0.00,VWS V14.01,2013-12-30 16:05:00,
2013-12-30 10:10:00,14.2,-12.2,30.09,SE,135,7.2,7.8,29,0.00,,---,99.99,0.00,VWS V14.01,2013-12-30 16:10:00,
2013-12-30 10:15:00,14.0,-12.4,30.09,SW,225,8.5,8.5,29,0.00,,---,99.99,0.00,VWS V14.01,2013-12-30 16:15:00,
2013-12-30 10:21:00,14.0,-13.8,30.09,South,180,4.7,8.5,27,0.00,,---,99.99,0.00,VWS V14.01,2013-12-30 16:21:00,
2013-12-30 10:26:00,14.0,-13.8,30.09,SSE,158,5.8,6.5,27,0.00,,---,99.99,0.00,VWS V14.01,2013-12-30 16:26:00,
2013-12-30 10:31:00,14.5,-14.1,30.12,South,180,4.9,5.8,26,0.00,,---,99.99,0.00,VWS V14.01,2013-12-30 16:31:00,
2013-12-30 10:36:00,14.7,-13.9,30.12,SSE,158,6.5,8.1,26,0.00,,---,99.99,0.00,VWS V14.01,2013-12-30 16:36:00,
2013-12-30 10:41:00,14.9,-13.8,30.12,SSE,158,3.8,3.8,26,0.00,,---,99.99,0.00,VWS V14.01,2013-12-30 16:41:00,
2013-12-30 10:46:00,15.1,-13.6,30.12,SSE,158,6.3,6.3,26,0.00,,---,99.99,0.00,VWS V14.01,2013-12-30 16:46:00,
2013-12-30 10:51:00,15.1,-13.6,30.12,South,180,8.1,8.1,26,0.00,,---,99.99,0.00,VWS V14.01,2013-12-30 16:51:00,
2013-12-30 10:56:00,16.2,-12.7,30.12,SSW,202,3.4,3.6,26,0.00,,---,99.99,0.00,VWS V14.01,2013-12-30 16:56:00,
2013-12-30 11:01:00,16.2,-12.7,30.12,SSW,202,7.2,7.2,26,0.00,,---,99.99,0.00,VWS V14.01,2013-12-30 17:01:00,
2013-12-30 11:06:00,16.7,-12.2,30.12,South,180,6.0,6.0,26,0.00,,---,99.99,0.00,VWS V14.01,2013-12-30 17:06:00,
2013-12-30 11:11:00,16.7,-12.2,30.12,SSE,158,6.3,6.3,26,0.00,,---,99.99,0.00,VWS V14.01,2013-12-30 17:11:00,
2013-12-30 11:16:00,16.9,-12.1,30.12,SW,225,7.6,7.6,26,0.00,,---,99.99,0.00,VWS V14.01,2013-12-30 17:16:00,
2013-12-30 11:21:00,16.9,-12.1,30.12,SSW,202,8.7,10.7,26,0.00,,---,99.99,0.00,VWS V14.01,2013-12-30 17:21:00,
2013-12-30 11:26:00,17.1,-11.9,30.12,SSE,158,7.2,7.6,26,0.00,,---,99.99,0.00,VWS V14.01,2013-12-30 17:26:00,
2013-12-30 11:31:00,17.1,-11.9,30.12,SSE,158,7.8,7.8,26,0.00,,---,99.99,0.00,VWS V14.01,2013-12-30 17:31:00,
2013-12-30 11:36:00,17.4,-11.6,30.12,SSW,202,10.1,10.1,26,0.00,,---,99.99,0.00,VWS V14.01,2013-12-30 17:36:00,
2013-12-30 11:41:00,17.4,-11.6,30.12,SSE,158,9.4,9.4,26,0.00,,---,99.99,0.00,VWS V14.01,2013-12-30 17:41:00,
2013-12-30 11:46:00,17.4,-11.6,30.12,SSW,202,7.8,7.8,26,0.00,,---,99.99,0.00,VWS V14.01,2013-12-30 17:46:00,
2013-12-30 11:51:00,17.8,-12.1,30.12,SSW,202,7.6,7.6,25,0.00,,---,99.99,0.00,VWS V14.01,2013-12-30 17:51:00,
2013-12-30 11:56:00,17.8,-12.1,30.12,SSE,158,6.3,6.3,25,0.00,,---,99.99,0.00,VWS V14.01,2013-12-30 17:56:00,
2013-12-30 12:01:00,18.3,-11.6,30.12,South,180,6.0,8.5,25,0.00,,---,99.99,0.00,VWS V14.01,2013-12-30 18:01:00,
2013-12-30 12:06:00,18.3,-11.6,30.12,South,180,5.4,6.0,25,0.00,,---,99.99,0.00,VWS V14.01,2013-12-30 18:06:00,
2013-12-30 12:11:00,18.7,-11.3,30.12,SSW,202,4.3,4.3,25,0.00,,---,99.99,0.00,VWS V14.01,2013-12-30 18:11:00,
2013-12-30 12:16:00,19.2,-10.8,30.12,SSW,202,3.8,4.3,25,0.00,,---,99.99,0.00,VWS V14.01,2013-12-30 18:16:00,
2013-12-30 12:21:00,19.4,-10.7,30.12,SSE,158,6.5,6.5,25,0.00,,---,99.99,0.00,VWS V14.01,2013-12-30 18:21:00,
2013-12-30 12:26:00,19.6,-10.5,30.09,South,180,7.6,10.5,25,0.00,,---,99.99,0.00,VWS V14.01,2013-12-30 18:26:00,
2013-12-30 12:31:00,19.4,-10.7,30.09,SSW,202,6.0,7.6,25,0.00,,---,99.99,0.00,VWS V14.01,2013-12-30 18:31:00,
2013-12-30 12:36:00,19.4,-10.7,30.09,SSW,202,6.0,6.0,25,0.00,,---,99.99,0.00,VWS V14.01,2013-12-30 18:36:00,
2013-12-30 12:42:00,20.3,-9.9,30.09,SSW,202,5.8,8.1,25,0.00,,---,99.99,0.00,VWS V14.01,2013-12-30 18:42:00,
2013-12-30 12:47:00,20.3,-9.9,30.09,SW,225,5.4,5.4,25,0.00,,---,99.99,0.00,VWS V14.01,2013-12-30 18:47:00,
2013-12-30 12:52:00,20.7,-9.6,30.09,WSW,248,6.5,6.5,25,0.00,,---,99.99,0.00,VWS V14.01,2013-12-30 18:52:00,
2013-12-30 12:57:00,20.7,-9.6,30.09,WSW,248,6.5,6.5,25,0.00,,---,99.99,0.00,VWS V14.01,2013-12-30 18:57:00,
2013-12-30 13:02:00,20.8,-9.4,30.09,WSW,248,6.5,6.5,25,0.00,,---,99.99,0.00,VWS V14.01,2013-12-30 19:02:00,
2013-12-30 13:07:00,20.8,-9.4,30.06,SSW,202,6.5,6.5,25,0.00,,---,99.99,0.00,VWS V14.01,2013-12-30 19:07:00,
2013-12-30 13:12:00,20.8,-9.4,30.06,South,180,3.6,3.6,25,0.00,,---,99.99,0.00,VWS V14.01,2013-12-30 19:12:00,
2013-12-30 13:17:00,21.2,-9.1,30.06,SSW,202,5.4,8.7,25,0.00,,---,99.99,0.00,VWS V14.01,2013-12-30 19:17:00,
2013-12-30 13:22:00,21.2,-11.7,30.03,SSW,202,8.7,8.7,22,0.00,,---,99.99,0.00,VWS V14.01,2013-12-30 19:22:00,
2013-12-30 13:27:00,21.2,-11.7,30.03,South,180,6.5,6.5,22,0.00,,---,99.99,0.00,VWS V14.01,2013-12-30 19:27:00,
2013-12-30 13:32:00,21.2,-11.7,30.03,SSW,202,8.7,13.2,22,0.00,,---,99.99,0.00,VWS V14.01,2013-12-30 19:32:00,
2013-12-30 13:37:00,21.2,-11.7,30.03,SSW,202,4.7,6.3,22,0.00,,---,99.99,0.00,VWS V14.01,2013-12-30 19:37:00,
2013-12-30 13:42:00,21.4,-11.5,30.03,SSW,202,4.7,4.7,22,0.00,,---,99.99,0.00,VWS V14.01,2013-12-30 19:42:00,
2013-12-30 13:47:00,21.6,-11.4,30.03,SSW,202,7.6,7.6,22,0.00,,---,99.99,0.00,VWS V14.01,2013-12-30 19:47:00,
2013-12-30 13:52:00,21.7,-11.2,30.03,SSW,202,6.0,7.6,22,0.00,,---,99.99,0.00,VWS V14.01,2013-12-30 19:52:00,
2013-12-30 13:57:00,21.7,-11.2,30.03,South,180,4.0,8.5,22,0.00,,---,99.99,0.00,VWS V14.01,2013-12-30 19:57:00,
2013-12-30 14:03:00,22.1,-10.9,30.03,SSW,202,7.2,8.5,22,0.00,,---,99.99,0.00,VWS V14.01,2013-12-30 20:03:00,
2013-12-30 14:08:00,22.1,-10.9,30.03,SW,225,7.6,7.8,22,0.00,,---,99.99,0.00,VWS V14.01,2013-12-30 20:08:00,
2013-12-30 14:13:00,23.9,-9.4,30.03,SW,225,11.2,11.2,22,0.00,,---,99.99,0.00,VWS V14.01,2013-12-30 20:13:00,
2013-12-30 14:18:00,24.4,-8.9,30.03,South,180,7.4,10.1,22,0.00,,---,99.99,0.00,VWS V14.01,2013-12-30 20:18:00,
2013-12-30 14:23:00,25.0,-9.4,30.06,SSW,202,4.3,4.3,21,0.00,,---,99.99,0.00,VWS V14.01,2013-12-30 20:23:00,
2013-12-30 14:28:00,25.0,-9.4,30.06,SW,225,7.6,7.6,21,0.00,,---,99.99,0.00,VWS V14.01,2013-12-30 20:28:00,
2013-12-30 14:33:00,25.0,-9.4,30.06,SW,225,6.3,6.3,21,0.00,,---,99.99,0.00,VWS V14.01,2013-12-30 20:33:00,
2013-12-30 14:38:00,25.3,-9.1,30.09,SW,225,5.4,10.1,21,0.00,,---,99.99,0.00,VWS V14.01,2013-12-30 20:38:00,
2013-12-30 14:43:00,25.2,-9.3,30.09,SSW,202,5.4,5.6,21,0.00,,---,99.99,0.00,VWS V14.01,2013-12-30 20:43:00,
2013-12-30 14:48:00,25.2,-9.3,30.09,SSW,202,5.4,7.4,21,0.00,,---,99.99,0.00,VWS V14.01,2013-12-30 20:48:00,
2013-12-30 14:53:00,24.8,-8.6,30.03,SW,225,6.3,7.6,22,0.00,,---,99.99,0.00,VWS V14.01,2013-12-30 20:53:00,
2013-12-30 14:58:00,24.8,-8.6,30.03,WSW,248,9.6,12.1,22,0.00,,---,99.99,0.00,VWS V14.01,2013-12-30 20:58:00,
2013-12-30 15:03:00,24.8,-8.6,30.03,SSW,202,6.3,6.3,22,0.00,,---,99.99,0.00,VWS V14.01,2013-12-30 21:03:00,
2013-12-30 15:08:00,25.0,-9.4,30.03,WSW,248,6.5,13.0,21,0.00,,---,99.99,0.00,VWS V14.01,2013-12-30 21:08:00,
2013-12-30 15:13:00,25.0,-9.4,30.03,WSW,248,7.8,9.8,21,0.00,,---,99.99,0.00,VWS V14.01,2013-12-30 21:13:00,
2013-12-30 15:18:00,25.2,-9.3,30.03,WSW,248,5.6,6.3,21,0.00,,---,99.99,0.00,VWS V14.01,2013-12-30 21:18:00,
2013-12-30 15:23:00,25.2,-9.3,30.03,WSW,248,6.3,9.6,21,0.00,,---,99.99,0.00,VWS V14.01,2013-12-30 21:23:00,
2013-12-30 15:28:00,25.2,-9.3,30.03,WSW,248,5.8,5.8,21,0.00,,---,99.99,0.00,VWS V14.01,2013-12-30 21:28:00,
2013-12-30 15:33:00,25.3,-9.1,30.03,SW,225,7.8,10.3,21,0.00,,---,99.99,0.00,VWS V14.01,2013-12-30 21:33:00,
2013-12-30 15:38:00,25.3,-9.1,30.03,WSW,248,6.3,6.3,21,0.00,,---,99.99,0.00,VWS V14.01,2013-12-30 21:38:00,
2013-12-30 15:43:00,25.7,-6.1,30.03,SW,225,4.7,7.2,24,0.00,,---,99.99,0.00,VWS V14.01,2013-12-30 21:43:00,
2013-12-30 15:48:00,25.9,-5.9,30.03,WSW,248,6.0,7.8,24,0.00,,---,99.99,0.00,VWS V14.01,2013-12-30 21:48:00,
2013-12-30 15:53:00,25.9,-5.9,30.03,WSW,248,12.5,12.5,24,0.00,,---,99.99,0.00,VWS V14.01,2013-12-30 21:53:00,
2013-12-30 15:58:00,25.9,-5.9,30.03,WSW,248,7.4,7.4,24,0.00,,---,99.99,0.00,VWS V14.01,2013-12-30 21:58:00,
2013-12-30 16:03:00,25.7,-6.1,30.03,SW,225,6.7,6.7,24,0.00,,---,99.99,0.00,VWS V14.01,2013-12-30 22:03:00,
2013-12-30 16:08:00,25.7,-6.1,30.03,SSW,202,7.4,7.4,24,0.00,,---,99.99,0.00,VWS V14.01,2013-12-30 22:08:00,
2013-12-30 16:13:00,25.7,-6.1,30.03,WSW,248,9.0,9.0,24,0.00,,---,99.99,0.00,VWS V14.01,2013-12-30 22:13:00,
2013-12-30 16:18:00,25.7,-6.1,30.03,West,270,5.8,5.8,24,0.00,,---,99.99,0.00,VWS V14.01,2013-12-30 22:18:00,
2013-12-30 16:24:00,25.7,-6.1,30.03,WSW,248,7.8,7.8,24,0.00,,---,99.99,0.00,VWS V14.01,2013-12-30 22:24:00,
2013-12-30 16:29:00,25.9,-5.9,30.03,WSW,248,6.5,6.5,24,0.00,,---,99.99,0.00,VWS V14.01,2013-12-30 22:29:00,
2013-12-30 16:34:00,25.9,-5.9,30.03,WSW,248,6.0,6.5,24,0.00,,---,99.99,0.00,VWS V14.01,2013-12-30 22:34:00,
2013-12-30 16:39:00,25.9,-5.9,30.03,WSW,248,5.4,5.4,24,0.00,,---,99.99,0.00,VWS V14.01,2013-12-30 22:39:00,
2013-12-30 16:44:00,25.9,-5.9,30.03,SSW,202,5.8,5.8,24,0.00,,---,99.99,0.00,VWS V14.01,2013-12-30 22:44:00,
2013-12-30 16:49:00,26.1,-5.8,30.03,WSW,248,3.1,5.8,24,0.00,,---,99.99,0.00,VWS V14.01,2013-12-30 22:49:00,
2013-12-30 16:54:00,26.1,-5.8,30.03,SW,225,0.0,2.7,24,0.00,,---,99.99,0.00,VWS V14.01,2013-12-30 22:54:00,
2013-12-30 16:59:00,26.1,-5.8,30.03,WSW,248,4.3,4.3,24,0.00,,---,99.99,0.00,VWS V14.01,2013-12-30 22:59:00,
2013-12-30 17:04:00,26.1,-5.8,30.03,SW,225,5.8,5.8,24,0.00,,---,99.99,0.00,VWS V14.01,2013-12-30 23:04:00,
2013-12-30 17:09:00,26.1,-5.8,30.03,SW,225,3.1,3.8,24,0.00,,---,99.99,0.00,VWS V14.01,2013-12-30 23:09:00,
2013-12-30 17:14:00,26.1,-5.8,30.03,West,270,4.0,4.0,24,0.00,,---,99.99,0.00,VWS V14.01,2013-12-30 23:14:00,
2013-12-30 17:19:00,26.1,-5.8,30.03,SW,225,4.3,4.5,24,0.00,,---,99.99,0.00,VWS V14.01,2013-12-30 23:19:00,
2013-12-30 17:24:00,26.1,-5.8,30.03,SW,225,5.6,5.6,24,0.00,,---,99.99,0.00,VWS V14.01,2013-12-30 23:24:00,
2013-12-30 17:29:00,26.2,-5.6,30.03,SSW,202,2.0,3.4,24,0.00,,---,99.99,0.00,VWS V14.01,2013-12-30 23:29:00,
2013-12-30 17:34:00,26.2,-5.6,30.03,WSW,248,3.4,3.4,24,0.00,,---,99.99,0.00,VWS V14.01,2013-12-30 23:34:00,
2013-12-30 17:39:00,26.2,-5.6,30.00,SSW,202,4.5,5.6,24,0.00,,---,99.99,0.00,VWS V14.01,2013-12-30 23:39:00,
2013-12-30 17:44:00,26.2,-5.6,30.00,SSW,202,3.1,3.1,24,0.00,,---,99.99,0.00,VWS V14.01,2013-12-30 23:44:00,
2013-12-30 17:49:00,26.1,-5.8,30.00,WSW,248,3.8,3.8,24,0.00,,---,99.99,0.00,VWS V14.01,2013-12-30 23:49:00,
2013-12-30 17:54:00,26.1,-5.8,30.03,WSW,248,5.6,5.6,24,0.00,,---,99.99,0.00,VWS V14.01,2013-12-30 23:54:00,
2013-12-30 17:59:00,26.1,-5.8,30.03,WNW,292,6.0,7.4,24,0.00,,---,99.99,0.00,VWS V14.01,2013-12-30 23:59:00,
2013-12-30 18:04:00,26.1,-5.8,30.03,SSW,202,6.0,10.7,24,0.00,,---,99.99,0.00,VWS V14.01,2013-12-31 00:04:00,
2013-12-30 18:09:00,26.4,-5.5,30.03,SW,225,4.9,6.0,24,0.00,,---,99.99,0.00,VWS V14.01,2013-12-31 00:09:00,
2013-12-30 18:14:00,26.6,-5.3,30.03,NNE,22,1.6,1.6,24,0.00,,---,99.99,0.00,VWS V14.01,2013-12-31 00:14:00,
2013-12-30 18:19:00,26.6,-5.3,30.03,SSW,202,1.6,1.6,24,0.00,,---,99.99,0.00,VWS V14.01,2013-12-31 00:19:00,
2013-12-30 18:24:00,26.6,-5.3,30.03,SSW,202,2.7,2.7,24,0.00,,---,99.99,0.00,VWS V14.01,2013-12-31 00:24:00,
2013-12-30 18:29:00,26.4,-5.5,30.03,SSW,202,2.7,2.7,24,0.00,,---,99.99,0.00,VWS V14.01,2013-12-31 00:29:00,
2013-12-30 18:34:00,26.2,-5.6,30.03,South,180,2.0,2.7,24,0.00,,---,99.99,0.00,VWS V14.01,2013-12-31 00:34:00,
2013-12-30 18:39:00,25.7,-6.1,30.03,SSW,202,0.0,486.9,24,0.00,,---,99.99,0.00,VWS V14.01,2013-12-31 00:39:00,
2013-12-30 18:45:00,25.5,-6.2,30.03,SW,225,2.7,3.1,24,0.00,,---,99.99,0.00,VWS V14.01,2013-12-31 00:45:00,
2013-12-30 18:50:00,25.3,-6.4,30.03,SW,225,1.6,3.1,24,0.00,,---,99.99,0.00,VWS V14.01,2013-12-31 00:50:00,
2013-12-30 18:55:00,25.3,-6.4,30.03,SW,225,0.0,0.0,24,0.00,,---,99.99,0.00,VWS V14.01,2013-12-31 00:55:00,
2013-12-30 19:00:00,25.3,-6.4,30.03,SW,225,0.0,0.0,24,0.00,,---,99.99,0.00,VWS V14.01,2013-12-31 01:00:00,
2013-12-30 19:05:00,25.9,-4.3,30.03,SW,225,4.0,4.0,26,0.00,,---,99.99,0.00,VWS V14.01,2013-12-31 01:05:00,
2013-12-30 19:10:00,25.9,-4.3,30.03,SSW,202,3.1,3.1,26,0.00,,---,99.99,0.00,VWS V14.01,2013-12-31 01:10:00,
2013-12-30 19:15:00,25.9,-4.3,30.03,SW,225,2.7,2.7,26,0.00,,---,99.99,0.00,VWS V14.01,2013-12-31 01:15:00,
2013-12-30 19:20:00,25.9,-4.3,30.03,SW,225,2.7,2.7,26,0.00,,---,99.99,0.00,VWS V14.01,2013-12-31 01:20:00,
2013-12-30 19:25:00,26.2,-4.0,30.03,WSW,248,3.4,4.0,26,0.00,,---,99.99,0.00,VWS V14.01,2013-12-31 01:25:00,
2013-12-30 19:30:00,26.4,-3.8,30.03,WSW,248,0.0,0.0,26,0.00,,---,99.99,0.00,VWS V14.01,2013-12-31 01:30:00,
2013-12-30 19:35:00,26.8,-3.5,30.03,West,270,3.6,3.6,26,0.00,,---,99.99,0.00,VWS V14.01,2013-12-31 01:35:00,
2013-12-30 19:40:00,27.0,-3.3,30.06,West,270,3.8,5.4,26,0.00,,---,99.99,0.00,VWS V14.01,2013-12-31 01:40:00,
2013-12-30 19:45:00,27.0,-3.3,30.06,West,270,0.0,0.0,26,0.00,,---,99.99,0.00,VWS V14.01,2013-12-31 01:45:00,
2013-12-30 19:50:00,27.0,-3.3,30.06,WSW,248,4.0,4.0,26,0.00,,---,99.99,0.00,VWS V14.01,2013-12-31 01:50:00,
2013-12-30 19:55:00,26.8,-3.5,30.06,WSW,248,4.3,4.3,26,0.00,,---,99.99,0.00,VWS V14.01,2013-12-31 01:55:00,
2013-12-30 20:00:00,26.4,-3.8,30.06,WSW,248,0.0,0.0,26,0.00,,---,99.99,0.00,VWS V14.01,2013-12-31 02:00:00,
2013-12-30 20:05:00,26.1,-4.1,30.06,WSW,248,0.0,5.6,26,0.00,,---,99.99,0.00,VWS V14.01,2013-12-31 02:05:00,
2013-12-30 20:10:00,26.1,-4.1,30.06,WSW,248,0.0,4.7,26,0.00,,---,99.99,0.00,VWS V14.01,2013-12-31 02:10:00,
2013-12-30 20:15:00,25.9,-4.3,30.06,WSW,248,4.0,4.9,26,0.00,,---,99.99,0.00,VWS V14.01,2013-12-31 02:15:00,
2013-12-30 20:20:00,25.7,-4.4,30.09,SW,225,4.3,4.9,26,0.00,,---,99.99,0.00,VWS V14.01,2013-12-31 02:20:00,
2013-12-30 20:25:00,25.7,-4.4,30.06,WSW,248,5.6,6.0,26,0.00,,---,99.99,0.00,VWS V14.01,2013-12-31 02:25:00,
2013-12-30 20:30:00,25.7,-4.4,30.06,WSW,248,4.5,4.5,26,0.00,,---,99.99,0.00,VWS V14.01,2013-12-31 02:30:00,
2013-12-30 20:35:00,25.5,-2.3,30.09,WSW,248,4.9,5.6,29,0.00,,---,99.99,0.00,VWS V14.01,2013-12-31 02:35:00,
2013-12-30 20:40:00,25.5,-2.3,30.09,West,270,4.9,7.4,29,0.00,,---,99.99,0.00,VWS V14.01,2013-12-31 02:40:00,
2013-12-30 20:45:00,25.5,-2.3,30.09,West,270,4.9,5.8,29,0.00,,---,99.99,0.00,VWS V14.01,2013-12-31 02:45:00,
2013-12-30 20:51:00,24.8,-0.9,30.09,WNW,292,5.8,6.3,32,0.00,,---,99.99,0.00,VWS V14.01,2013-12-31 02:51:00,